sensor_id;sensor_type;location;lat;lon;timestamp;pressure;altitude;pressure_sealevel;temperature;humidity
34177;BME280;20450;49.074;9.158;2023-01-25T00:00:05;101537.38;;;2.67;88.03
34177;BME280;20450;49.074;9.158;2023-01-25T00:02:33;101536.63;;;2.65;87.46
34177;BME280;20450;49.074;9.158;2023-01-25T01:50:22;101529.16;;;2.36;90.48
34177;BME280;20450;49.074;9.158;2023-01-25T01:52:52;101524.94;;;2.33;90.55
34177;BME280;20450;49.074;9.158;2023-01-25T01:55:21;101524.94;;;2.33;90.76
34177;BME280;20450;49.074;9.158;2023-01-25T01:57:51;101524.47;;;2.39;90.83
34177;BME280;20450;49.074;9.158;2023-01-25T02:00:25;101532.09;;;2.44;90.17
34177;BME280;20450;49.074;9.158;2023-01-25T02:02:55;101520.47;;;2.45;90.43
34177;BME280;20450;49.074;9.158;2023-01-25T02:05:30;101525.28;;;2.40;90.68
34177;BME280;20450;49.074;9.158;2023-01-25T02:08:04;101516.69;;;2.47;90.58
34177;BME280;20450;49.074;9.158;2023-01-25T02:10:35;101516.19;;;2.31;90.73
34177;BME280;20450;49.074;9.158;2023-01-25T02:13:03;101522.31;;;2.21;91.73
34177;BME280;20450;49.074;9.158;2023-01-25T02:15:36;101520.91;;;2.28;92.15
34177;BME280;20450;49.074;9.158;2023-01-25T02:18:07;101515.34;;;2.31;91.54
34177;BME280;20450;49.074;9.158;2023-01-25T02:20:38;101497.69;;;2.41;91.88
34177;BME280;20450;49.074;9.158;2023-01-25T02:23:14;101506.28;;;2.44;91.31
34177;BME280;20450;49.074;9.158;2023-01-25T02:25:49;101501.91;;;2.43;91.51
34177;BME280;20450;49.074;9.158;2023-01-25T02:28:20;101503.38;;;2.47;91.49
34177;BME280;20450;49.074;9.158;2023-01-25T02:30:51;101499.75;;;2.59;91.27
34177;BME280;20450;49.074;9.158;2023-01-25T02:33:18;101500.03;;;2.67;91.02
34177;BME280;20450;49.074;9.158;2023-01-25T02:35:49;101501.22;;;2.74;90.81
34177;BME280;20450;49.074;9.158;2023-01-25T02:38:21;101498.09;;;2.80;90.70
34177;BME280;20450;49.074;9.158;2023-01-25T02:40:57;101485.47;;;2.82;90.03
34177;BME280;20450;49.074;9.158;2023-01-25T02:43:31;101491.91;;;2.80;89.95
34177;BME280;20450;49.074;9.158;2023-01-25T02:46:06;101487.66;;;2.77;90.27
34177;BME280;20450;49.074;9.158;2023-01-25T02:48:43;101484.50;;;2.83;90.50
34177;BME280;20450;49.074;9.158;2023-01-25T02:51:10;101487.91;;;2.85;89.62
34177;BME280;20450;49.074;9.158;2023-01-25T02:53:39;101476.25;;;2.86;90.06
34177;BME280;20450;49.074;9.158;2023-01-25T02:56:07;101473.81;;;2.83;89.80
34177;BME280;20450;49.074;9.158;2023-01-25T02:58:34;101475.28;;;2.87;89.42
34177;BME280;20450;49.074;9.158;2023-01-25T03:01:01;101476.75;;;2.69;89.81
34177;BME280;20450;49.074;9.158;2023-01-25T03:03:28;101471.19;;;2.72;89.86
34177;BME280;20450;49.074;9.158;2023-01-25T03:05:56;101469.56;;;2.70;89.97
34177;BME280;20450;49.074;9.158;2023-01-25T03:08:24;101468.25;;;2.75;89.84
34177;BME280;20450;49.074;9.158;2023-01-25T03:10:55;101472.50;;;2.78;89.90
34177;BME280;20450;49.074;9.158;2023-01-25T03:13:25;101468.50;;;2.83;89.93
34177;BME280;20450;49.074;9.158;2023-01-25T03:15:58;101469.09;;;2.87;90.05
34177;BME280;20450;49.074;9.158;2023-01-25T03:18:26;101465.59;;;2.86;89.12
34177;BME280;20450;49.074;9.158;2023-01-25T03:20:53;101467.16;;;2.78;89.23
34177;BME280;20450;49.074;9.158;2023-01-25T03:23:20;101458.06;;;2.80;89.75
34177;BME280;20450;49.074;9.158;2023-01-25T03:25:49;101456.72;;;2.75;88.97
34177;BME280;20450;49.074;9.158;2023-01-25T03:28:17;101454.66;;;2.67;89.49
34177;BME280;20450;49.074;9.158;2023-01-25T03:30:52;101454.44;;;2.70;89.58
34177;BME280;20450;49.074;9.158;2023-01-25T03:33:19;101463.66;;;2.66;89.35
34177;BME280;20450;49.074;9.158;2023-01-25T03:35:50;101449.22;;;2.69;89.28
34177;BME280;20450;49.074;9.158;2023-01-25T03:38:18;101455.38;;;2.58;89.01
34177;BME280;20450;49.074;9.158;2023-01-25T03:40:45;101449.06;;;2.37;90.04
34177;BME280;20450;49.074;9.158;2023-01-25T03:43:13;101456.19;;;2.37;90.22
34177;BME280;20450;49.074;9.158;2023-01-25T03:45:41;101449.28;;;2.34;90.12
34177;BME280;20450;49.074;9.158;2023-01-25T03:48:10;101454.50;;;2.36;90.21
34177;BME280;20450;49.074;9.158;2023-01-25T03:50:37;101451.25;;;2.32;89.70
34177;BME280;20450;49.074;9.158;2023-01-25T03:53:04;101447.84;;;2.30;89.88
34177;BME280;20450;49.074;9.158;2023-01-25T03:55:31;101448.94;;;2.39;89.75
34177;BME280;20450;49.074;9.158;2023-01-25T03:57:58;101450.50;;;2.30;89.23
34177;BME280;20450;49.074;9.158;2023-01-25T04:00:25;101454.97;;;2.30;89.28
34177;BME280;20450;49.074;9.158;2023-01-25T04:02:58;101454.50;;;2.25;89.15
34177;BME280;20450;49.074;9.158;2023-01-25T04:05:27;101448.81;;;2.29;88.30
34177;BME280;20450;49.074;9.158;2023-01-25T04:07:54;101450.75;;;2.27;88.54
34177;BME280;20450;49.074;9.158;2023-01-25T04:10:29;101446.03;;;2.31;88.81
34177;BME280;20450;49.074;9.158;2023-01-25T04:12:56;101448.31;;;2.24;88.90
34177;BME280;20450;49.074;9.158;2023-01-25T04:15:23;101442.47;;;2.19;88.76
34177;BME280;20450;49.074;9.158;2023-01-25T04:17:50;101439.44;;;2.24;89.08
34177;BME280;20450;49.074;9.158;2023-01-25T04:20:21;101438.84;;;2.20;88.84
34177;BME280;20450;49.074;9.158;2023-01-25T04:22:49;101433.19;;;2.25;89.12
34177;BME280;20450;49.074;9.158;2023-01-25T04:25:19;101429.03;;;2.21;88.74
34177;BME280;20450;49.074;9.158;2023-01-25T04:27:50;101440.78;;;2.18;89.28
34177;BME280;20450;49.074;9.158;2023-01-25T04:30:17;101430.00;;;2.20;88.85
34177;BME280;20450;49.074;9.158;2023-01-25T04:32:46;101429.13;;;2.19;88.90
34177;BME280;20450;49.074;9.158;2023-01-25T04:35:24;101436.19;;;2.20;89.00
34177;BME280;20450;49.074;9.158;2023-01-25T04:37:54;101434.59;;;2.18;88.77
34177;BME280;20450;49.074;9.158;2023-01-25T04:40:23;101438.13;;;2.18;88.84
34177;BME280;20450;49.074;9.158;2023-01-25T04:42:50;101438.84;;;2.20;89.28
34177;BME280;20450;49.074;9.158;2023-01-25T04:45:17;101426.25;;;2.22;89.35
34177;BME280;20450;49.074;9.158;2023-01-25T04:47:44;101430.88;;;2.31;89.01
34177;BME280;20450;49.074;9.158;2023-01-25T04:50:10;101435.25;;;2.43;88.71
34177;BME280;20450;49.074;9.158;2023-01-25T04:52:37;101433.56;;;2.42;88.27
34177;BME280;20450;49.074;9.158;2023-01-25T04:55:06;101434.88;;;2.37;88.02
34177;BME280;20450;49.074;9.158;2023-01-25T04:57:40;101429.88;;;2.21;88.44
34177;BME280;20450;49.074;9.158;2023-01-25T05:00:09;101429.25;;;2.18;88.76
34177;BME280;20450;49.074;9.158;2023-01-25T05:02:37;101424.56;;;2.21;88.65
34177;BME280;20450;49.074;9.158;2023-01-25T05:05:06;101428.56;;;2.27;88.91
34177;BME280;20450;49.074;9.158;2023-01-25T05:07:35;101425.28;;;2.23;88.43
34177;BME280;20450;49.074;9.158;2023-01-25T05:10:03;101428.09;;;2.22;88.94
34177;BME280;20450;49.074;9.158;2023-01-25T05:12:33;101429.13;;;2.19;88.44
34177;BME280;20450;49.074;9.158;2023-01-25T05:15:05;101430.00;;;2.20;88.45
34177;BME280;20450;49.074;9.158;2023-01-25T05:17:34;101434.72;;;2.16;88.22
34177;BME280;20450;49.074;9.158;2023-01-25T05:20:01;101427.69;;;2.15;88.55
34177;BME280;20450;49.074;9.158;2023-01-25T05:22:29;101427.91;;;2.12;88.39
34177;BME280;20450;49.074;9.158;2023-01-25T05:24:56;101424.56;;;2.21;88.73
34177;BME280;20450;49.074;9.158;2023-01-25T05:27:23;101427.09;;;2.23;87.82
34177;BME280;20450;49.074;9.158;2023-01-25T05:29:56;101427.22;;;2.21;88.35
34177;BME280;20450;49.074;9.158;2023-01-25T05:32:43;101424.91;;;2.17;88.20
34177;BME280;20450;49.074;9.158;2023-01-25T05:35:11;101431.22;;;2.16;88.24
34177;BME280;20450;49.074;9.158;2023-01-25T05:37:38;101419.69;;;2.15;88.58
34177;BME280;20450;49.074;9.158;2023-01-25T05:40:10;101427.47;;;2.18;88.58
34177;BME280;20450;49.074;9.158;2023-01-25T05:42:38;101422.38;;;2.26;88.66
34177;BME280;20450;49.074;9.158;2023-01-25T05:45:13;101416.78;;;2.18;88.45
34177;BME280;20450;49.074;9.158;2023-01-25T05:47:43;101415.94;;;2.18;88.31
34177;BME280;20450;49.074;9.158;2023-01-25T05:50:10;101408.56;;;2.21;88.72
34177;BME280;20450;49.074;9.158;2023-01-25T05:52:49;101403.25;;;2.32;88.69
34177;BME280;20450;49.074;9.158;2023-01-25T05:55:16;101403.25;;;2.43;88.32
34177;BME280;20450;49.074;9.158;2023-01-25T05:57:43;101391.25;;;2.49;87.89
34177;BME280;20450;49.074;9.158;2023-01-25T06:00:12;101395.50;;;2.51;87.50
34177;BME280;20450;49.074;9.158;2023-01-25T06:02:40;101399.50;;;2.35;87.03
34177;BME280;20450;49.074;9.158;2023-01-25T06:05:13;101389.06;;;2.32;87.11
34177;BME280;20450;49.074;9.158;2023-01-25T06:07:39;101392.09;;;2.27;87.04
34177;BME280;20450;49.074;9.158;2023-01-25T06:10:08;101390.16;;;2.29;87.20
34177;BME280;20450;49.074;9.158;2023-01-25T06:12:35;101386.41;;;2.32;87.48
34177;BME280;20450;49.074;9.158;2023-01-25T06:15:03;101392.09;;;2.27;87.40
34177;BME280;20450;49.074;9.158;2023-01-25T06:17:32;101395.09;;;2.23;87.97
34177;BME280;20450;49.074;9.158;2023-01-25T06:20:15;101390.88;;;2.31;87.69
34177;BME280;20450;49.074;9.158;2023-01-25T06:23:17;101386.16;;;2.35;87.56
34177;BME280;20450;49.074;9.158;2023-01-25T06:25:44;101380.47;;;2.39;87.75
34177;BME280;20450;49.074;9.158;2023-01-25T06:28:11;101378.50;;;2.41;87.54
34177;BME280;20450;49.074;9.158;2023-01-25T06:30:38;101379.25;;;2.43;87.00
34177;BME280;20450;49.074;9.158;2023-01-25T06:33:07;101375.63;;;2.33;87.47
34177;BME280;20450;49.074;9.158;2023-01-25T06:35:34;101377.53;;;2.31;86.99
34177;BME280;20450;49.074;9.158;2023-01-25T06:38:01;101383.59;;;2.22;87.64
34177;BME280;20450;49.074;9.158;2023-01-25T06:40:28;101372.22;;;2.20;87.87
34177;BME280;20450;49.074;9.158;2023-01-25T06:42:55;101372.34;;;2.19;87.32
34177;BME280;20450;49.074;9.158;2023-01-25T06:45:30;101370.97;;;2.13;87.61
34177;BME280;20450;49.074;9.158;2023-01-25T06:47:57;101370.63;;;2.18;87.69
34177;BME280;20450;49.074;9.158;2023-01-25T06:50:25;101373.78;;;2.23;87.63
34177;BME280;20450;49.074;9.158;2023-01-25T06:52:53;101374.41;;;2.26;87.29
34177;BME280;20450;49.074;9.158;2023-01-25T06:55:20;101377.06;;;2.26;87.16
34177;BME280;20450;49.074;9.158;2023-01-25T06:57:48;101381.44;;;2.60;90.38
34177;BME280;20450;49.074;9.158;2023-01-25T07:00:16;101378.41;;;2.65;85.97
34177;BME280;20450;49.074;9.158;2023-01-25T07:02:43;101383.97;;;2.62;87.09
34177;BME280;20450;49.074;9.158;2023-01-25T07:05:10;101375.59;;;2.77;86.05
34177;BME280;20450;49.074;9.158;2023-01-25T07:07:39;101379.09;;;2.67;85.59
34177;BME280;20450;49.074;9.158;2023-01-25T07:10:06;101378.28;;;2.55;85.60
34177;BME280;20450;49.074;9.158;2023-01-25T07:12:34;101371.47;;;2.62;85.45
34177;BME280;20450;49.074;9.158;2023-01-25T07:15:02;101372.34;;;2.63;85.28
34177;BME280;20450;49.074;9.158;2023-01-25T07:17:29;101370.28;;;2.55;85.58
34177;BME280;20450;49.074;9.158;2023-01-25T07:19:56;101372.22;;;2.42;85.95
34177;BME280;20450;49.074;9.158;2023-01-25T07:22:24;101370.53;;;2.30;86.40
34177;BME280;20450;49.074;9.158;2023-01-25T07:24:52;101370.50;;;2.41;86.34
34177;BME280;20450;49.074;9.158;2023-01-25T07:27:20;101361.31;;;2.45;86.50
34177;BME280;20450;49.074;9.158;2023-01-25T07:29:46;101362.75;;;2.38;86.85
34177;BME280;20450;49.074;9.158;2023-01-25T07:32:13;101357.78;;;2.78;86.98
34177;BME280;20450;49.074;9.158;2023-01-25T07:34:40;101355.69;;;2.81;85.32
34177;BME280;20450;49.074;9.158;2023-01-25T07:37:07;101368.31;;;2.79;85.02
34177;BME280;20450;49.074;9.158;2023-01-25T07:39:33;101361.25;;;2.89;84.21
34177;BME280;20450;49.074;9.158;2023-01-25T07:42:02;101361.75;;;2.94;84.37
34177;BME280;20450;49.074;9.158;2023-01-25T07:44:31;101356.72;;;3.01;83.95
34177;BME280;20450;49.074;9.158;2023-01-25T07:47:08;101362.69;;;3.04;83.62
34177;BME280;20450;49.074;9.158;2023-01-25T07:49:35;101361.88;;;2.93;83.32
34177;BME280;20450;49.074;9.158;2023-01-25T07:52:02;101353.00;;;2.81;83.88
34177;BME280;20450;49.074;9.158;2023-01-25T07:54:29;101356.28;;;2.85;84.03
34177;BME280;20450;49.074;9.158;2023-01-25T07:56:56;101361.25;;;2.89;83.97
34177;BME280;20450;49.074;9.158;2023-01-25T07:59:25;101369.03;;;2.92;83.87
34177;BME280;20450;49.074;9.158;2023-01-25T08:01:52;101362.94;;;2.90;83.69
34177;BME280;20450;49.074;9.158;2023-01-25T08:04:19;101376.91;;;2.83;84.61
34177;BME280;20450;49.074;9.158;2023-01-25T08:06:46;101380.91;;;2.88;84.76
34177;BME280;20450;49.074;9.158;2023-01-25T08:09:16;101382.59;;;2.89;84.27
34177;BME280;20450;49.074;9.158;2023-01-25T08:11:43;101373.13;;;2.96;83.49
34177;BME280;20450;49.074;9.158;2023-01-25T08:14:11;101373.97;;;3.08;83.05
34177;BME280;20450;49.074;9.158;2023-01-25T08:16:41;101371.69;;;3.03;83.73
34177;BME280;20450;49.074;9.158;2023-01-25T08:19:08;101373.84;;;2.98;83.34
34177;BME280;20450;49.074;9.158;2023-01-25T08:21:36;101372.28;;;2.96;83.69
34177;BME280;20450;49.074;9.158;2023-01-25T08:24:05;101366.84;;;2.97;83.40
34177;BME280;20450;49.074;9.158;2023-01-25T08:26:34;101366.84;;;2.97;83.58
34177;BME280;20450;49.074;9.158;2023-01-25T08:29:02;101364.91;;;2.88;83.43
34177;BME280;20450;49.074;9.158;2023-01-25T08:31:31;101360.78;;;2.84;83.73
34177;BME280;20450;49.074;9.158;2023-01-25T08:34:01;101364.78;;;2.90;84.35
34177;BME280;20450;49.074;9.158;2023-01-25T08:36:29;101352.31;;;2.79;83.16
34177;BME280;20450;49.074;9.158;2023-01-25T08:38:59;101349.59;;;2.90;83.00
34177;BME280;20450;49.074;9.158;2023-01-25T08:41:28;101350.22;;;2.83;83.15
34177;BME280;20450;49.074;9.158;2023-01-25T08:43:57;101350.84;;;2.86;83.76
34177;BME280;20450;49.074;9.158;2023-01-25T08:46:27;101350.81;;;2.97;82.96
34177;BME280;20450;49.074;9.158;2023-01-25T08:48:58;101344.88;;;2.83;82.29
34177;BME280;20450;49.074;9.158;2023-01-25T08:51:29;101338.09;;;2.79;82.88
34177;BME280;20450;49.074;9.158;2023-01-25T08:54:01;101349.84;;;2.87;82.95
34177;BME280;20450;49.074;9.158;2023-01-25T08:56:28;101343.94;;;2.84;82.23
34177;BME280;20450;49.074;9.158;2023-01-25T08:58:55;101338.09;;;2.79;82.65
34177;BME280;20450;49.074;9.158;2023-01-25T09:01:22;101331.22;;;2.76;82.75
34177;BME280;20450;49.074;9.158;2023-01-25T09:03:50;101340.06;;;2.77;81.91
34177;BME280;20450;49.074;9.158;2023-01-25T09:06:17;101339.47;;;2.73;82.66
34177;BME280;20450;49.074;9.158;2023-01-25T09:08:46;101332.53;;;2.82;82.24
34177;BME280;20450;49.074;9.158;2023-01-25T09:11:15;101339.66;;;2.92;82.59
34177;BME280;20450;49.074;9.158;2023-01-25T09:13:44;101332.06;;;2.77;82.39
34177;BME280;20450;49.074;9.158;2023-01-25T09:16:14;101331.59;;;2.72;83.25
34177;BME280;20450;49.074;9.158;2023-01-25T09:18:44;101323.09;;;2.78;82.14
34177;BME280;20450;49.074;9.158;2023-01-25T09:21:12;101326.50;;;2.80;81.89
34177;BME280;20450;49.074;9.158;2023-01-25T09:23:40;101334.94;;;2.85;82.01
34177;BME280;20450;49.074;9.158;2023-01-25T09:26:24;101325.38;;;2.82;82.22
34177;BME280;20450;49.074;9.158;2023-01-25T09:28:53;101324.19;;;2.75;82.11
34177;BME280;20450;49.074;9.158;2023-01-25T09:31:20;101322.72;;;2.71;82.69
34177;BME280;20450;49.074;9.158;2023-01-25T09:34:13;101330.97;;;2.79;82.27
34177;BME280;20450;49.074;9.158;2023-01-25T09:36:40;101327.22;;;2.60;82.24
34177;BME280;20450;49.074;9.158;2023-01-25T09:39:08;101329.66;;;2.63;82.98
34177;BME280;20450;49.074;9.158;2023-01-25T09:41:55;101324.94;;;2.55;82.73
34177;BME280;20450;49.074;9.158;2023-01-25T09:44:54;101318.28;;;2.50;83.30
34177;BME280;20450;49.074;9.158;2023-01-25T09:47:41;101325.19;;;2.52;84.13
34177;BME280;20450;49.074;9.158;2023-01-25T09:50:25;101324.84;;;2.35;83.74
34177;BME280;20450;49.074;9.158;2023-01-25T09:53:18;101318.16;;;2.40;84.45
34177;BME280;20450;49.074;9.158;2023-01-25T09:55:50;101306.38;;;2.54;84.32
34177;BME280;20450;49.074;9.158;2023-01-25T09:58:26;101308.44;;;2.72;84.05
34177;BME280;20450;49.074;9.158;2023-01-25T10:01:22;101313.38;;;2.77;82.54
34177;BME280;20450;49.074;9.158;2023-01-25T10:04:11;101308.88;;;2.88;82.04
34177;BME280;20450;49.074;9.158;2023-01-25T10:06:51;101305.91;;;3.02;81.50
34177;BME280;20450;49.074;9.158;2023-01-25T10:09:35;101298.97;;;3.11;81.61
34177;BME280;20450;49.074;9.158;2023-01-25T10:12:14;101303.66;;;2.87;81.33
34177;BME280;20450;49.074;9.158;2023-01-25T10:14:47;101305.44;;;2.44;82.35
34177;BME280;20450;49.074;9.158;2023-01-25T10:17:29;101294.66;;;2.34;83.14
34177;BME280;20450;49.074;9.158;2023-01-25T10:20:34;101305.34;;;2.23;82.80
34177;BME280;20450;49.074;9.158;2023-01-25T10:23:30;101302.53;;;2.14;83.61
34177;BME280;20450;49.074;9.158;2023-01-25T10:26:18;101300.25;;;2.20;83.20
34177;BME280;20450;49.074;9.158;2023-01-25T10:29:00;101299.38;;;2.20;83.78
34177;BME280;20450;49.074;9.158;2023-01-25T10:31:43;101297.78;;;2.28;83.38
34177;BME280;20450;49.074;9.158;2023-01-25T10:34:17;101293.09;;;2.32;83.42
34177;BME280;20450;49.074;9.158;2023-01-25T10:36:49;101291.97;;;2.34;83.04
34177;BME280;20450;49.074;9.158;2023-01-25T10:39:24;101290.53;;;2.30;83.59
34177;BME280;20450;49.074;9.158;2023-01-25T10:41:53;101289.44;;;2.33;83.45
34177;BME280;20450;49.074;9.158;2023-01-25T10:44:24;101292.72;;;2.25;83.26
34177;BME280;20450;49.074;9.158;2023-01-25T10:47:00;101293.31;;;2.18;83.28
34177;BME280;20450;49.074;9.158;2023-01-25T10:49:39;101288.84;;;2.18;83.03
34177;BME280;20450;49.074;9.158;2023-01-25T10:52:16;101281.34;;;2.23;83.42
34177;BME280;20450;49.074;9.158;2023-01-25T10:54:45;101277.41;;;2.38;83.39
34177;BME280;20450;49.074;9.158;2023-01-25T10:57:17;101272.94;;;2.39;82.05
34177;BME280;20450;49.074;9.158;2023-01-25T10:59:50;101280.47;;;2.23;82.87
34177;BME280;20450;49.074;9.158;2023-01-25T11:02:39;101277.81;;;2.23;82.85
34177;BME280;20450;49.074;9.158;2023-01-25T11:05:32;101267.88;;;2.25;83.32
34177;BME280;20450;49.074;9.158;2023-01-25T11:08:21;101262.44;;;2.26;83.03
34177;BME280;20450;49.074;9.158;2023-01-25T11:10:51;101262.44;;;2.26;83.37
34177;BME280;20450;49.074;9.158;2023-01-25T11:13:22;101262.66;;;2.34;83.59
34177;BME280;20450;49.074;9.158;2023-01-25T11:15:53;101255.50;;;2.24;83.25
34177;BME280;20450;49.074;9.158;2023-01-25T11:18:26;101249.72;;;2.19;83.14
34177;BME280;20450;49.074;9.158;2023-01-25T11:21:05;101246.69;;;2.23;83.12
34177;BME280;20450;49.074;9.158;2023-01-25T11:23:37;101253.22;;;2.19;82.93
34177;BME280;20450;49.074;9.158;2023-01-25T11:26:12;101234.91;;;2.15;82.73
34177;BME280;20450;49.074;9.158;2023-01-25T11:28:41;101247.19;;;2.17;82.22
34177;BME280;20450;49.074;9.158;2023-01-25T11:31:11;101239.63;;;2.22;83.04
34177;BME280;20450;49.074;9.158;2023-01-25T11:33:41;101238.56;;;2.25;82.63
34177;BME280;20450;49.074;9.158;2023-01-25T11:36:24;101225.69;;;2.41;82.90
34177;BME280;20450;49.074;9.158;2023-01-25T11:39:13;101214.72;;;2.55;82.09
34177;BME280;20450;49.074;9.158;2023-01-25T11:42:00;101210.59;;;2.62;81.70
34177;BME280;20450;49.074;9.158;2023-01-25T11:44:55;101208.25;;;2.68;80.94
34177;BME280;20450;49.074;9.158;2023-01-25T11:47:44;101200.47;;;2.76;81.27
34177;BME280;20450;49.074;9.158;2023-01-25T11:50:30;101203.06;;;2.87;80.48
34177;BME280;20450;49.074;9.158;2023-01-25T11:53:23;101190.13;;;2.83;80.13
34177;BME280;20450;49.074;9.158;2023-01-25T11:56:06;101179.66;;;2.59;80.59
34177;BME280;20450;49.074;9.158;2023-01-25T11:58:53;101174.91;;;2.74;80.82
34177;BME280;20450;49.074;9.158;2023-01-25T12:01:37;101171.03;;;2.67;80.86
34177;BME280;20450;49.074;9.158;2023-01-25T12:04:40;101155.47;;;2.51;81.71
34177;BME280;20450;49.074;9.158;2023-01-25T12:07:30;101154.06;;;2.68;81.33
34177;BME280;20450;49.074;9.158;2023-01-25T12:10:21;101139.84;;;2.78;80.77
34177;BME280;20450;49.074;9.158;2023-01-25T12:13:03;101141.75;;;2.56;81.37
34177;BME280;20450;49.074;9.158;2023-01-25T12:15:59;101128.22;;;2.37;81.72
34177;BME280;20450;49.074;9.158;2023-01-25T12:19:13;101125.41;;;2.49;81.95
34177;BME280;20450;49.074;9.158;2023-01-25T12:22:05;101107.00;;;2.67;81.67
34177;BME280;20450;49.074;9.158;2023-01-25T12:24:51;101115.03;;;2.87;81.36
34177;BME280;20450;49.074;9.158;2023-01-25T12:27:38;101106.50;;;2.93;80.08
34177;BME280;20450;49.074;9.158;2023-01-25T12:30:16;101097.13;;;2.99;79.71
34177;BME280;20450;49.074;9.158;2023-01-25T12:32:54;101099.91;;;2.56;80.50
34177;BME280;20450;49.074;9.158;2023-01-25T12:35:42;101084.28;;;2.52;81.43
34177;BME280;20450;49.074;9.158;2023-01-25T12:38:19;101080.28;;;2.57;81.95
34177;BME280;20450;49.074;9.158;2023-01-25T12:40:57;101077.28;;;2.71;81.76
34177;BME280;20450;49.074;9.158;2023-01-25T12:43:32;101072.72;;;2.62;80.73
34177;BME280;20450;49.074;9.158;2023-01-25T12:46:13;101070.75;;;2.23;81.26
34177;BME280;20450;49.074;9.158;2023-01-25T12:48:49;101062.50;;;2.26;81.73
34177;BME280;20450;49.074;9.158;2023-01-25T12:51:23;101059.22;;;2.23;81.53
34177;BME280;20450;49.074;9.158;2023-01-25T12:53:55;101058.38;;;2.22;81.73
34177;BME280;20450;49.074;9.158;2023-01-25T12:56:31;101045.66;;;2.26;82.09
34177;BME280;20450;49.074;9.158;2023-01-25T12:59:10;101046.69;;;2.34;82.19
34177;BME280;20450;49.074;9.158;2023-01-25T13:01:47;101038.97;;;2.52;82.23
34177;BME280;20450;49.074;9.158;2023-01-25T13:04:34;101035.47;;;2.72;81.47
34177;BME280;20450;49.074;9.158;2023-01-25T13:07:23;101039.91;;;2.92;80.88
34177;BME280;20450;49.074;9.158;2023-01-25T13:10:01;101032.41;;;3.06;80.11
34177;BME280;20450;49.074;9.158;2023-01-25T13:12:54;101028.31;;;3.02;79.44
34177;BME280;20450;49.074;9.158;2023-01-25T13:15:35;101029.63;;;2.87;79.87
34177;BME280;20450;49.074;9.158;2023-01-25T13:21:40;101023.53;;;2.76;80.80
34177;BME280;20450;49.074;9.158;2023-01-25T13:24:20;101022.78;;;2.44;81.49
34177;BME280;20450;49.074;9.158;2023-01-25T13:27:04;101016.38;;;2.35;81.61
34177;BME280;20450;49.074;9.158;2023-01-25T13:29:56;101008.97;;;2.39;81.92
34177;BME280;20450;49.074;9.158;2023-01-25T13:35:31;101006.66;;;2.45;81.72
34177;BME280;20450;49.074;9.158;2023-01-25T13:38:04;101002.22;;;2.35;81.23
34177;BME280;20450;49.074;9.158;2023-01-25T13:41:01;101007.47;;;2.25;81.72
34177;BME280;20450;49.074;9.158;2023-01-25T13:43:52;101005.56;;;2.16;82.11
34177;BME280;20450;49.074;9.158;2023-01-25T13:46:36;100996.63;;;2.17;82.26
34177;BME280;20450;49.074;9.158;2023-01-25T13:49:04;100993.72;;;2.20;81.95
34177;BME280;20450;49.074;9.158;2023-01-25T13:51:45;100997.06;;;2.22;81.75
34177;BME280;20450;49.074;9.158;2023-01-25T13:54:14;100991.22;;;2.28;82.17
34177;BME280;20450;49.074;9.158;2023-01-25T13:56:42;100992.38;;;2.35;82.17
34177;BME280;20450;49.074;9.158;2023-01-25T13:59:23;100989.84;;;2.34;82.47
34177;BME280;20450;49.074;9.158;2023-01-25T14:01:52;100985.84;;;2.39;81.91
34177;BME280;20450;49.074;9.158;2023-01-25T14:04:20;100983.41;;;2.57;82.86
34177;BME280;20450;49.074;9.158;2023-01-25T14:06:47;100980.69;;;2.68;81.55
34177;BME280;20450;49.074;9.158;2023-01-25T14:09:15;100984.66;;;2.83;81.67
34177;BME280;20450;49.074;9.158;2023-01-25T14:11:52;100988.94;;;2.95;80.68
34177;BME280;20450;49.074;9.158;2023-01-25T14:14:24;100985.59;;;3.02;80.71
34177;BME280;20450;49.074;9.158;2023-01-25T14:17:17;100987.41;;;2.92;80.15
34177;BME280;20450;49.074;9.158;2023-01-25T14:19:46;100980.09;;;2.64;80.44
34177;BME280;20450;49.074;9.158;2023-01-25T14:22:23;100979.47;;;2.51;80.47
34177;BME280;20450;49.074;9.158;2023-01-25T14:25:16;100978.88;;;2.48;81.03
34177;BME280;20450;49.074;9.158;2023-01-25T14:27:46;100976.00;;;2.60;81.26
34177;BME280;20450;49.074;9.158;2023-01-25T14:30:18;100964.81;;;2.66;80.95
34177;BME280;20450;49.074;9.158;2023-01-25T14:32:51;100965.84;;;2.75;81.17
34177;BME280;20450;49.074;9.158;2023-01-25T14:35:34;100962.75;;;2.79;80.31
34177;BME280;20450;49.074;9.158;2023-01-25T14:38:29;100950.44;;;2.88;80.62
34177;BME280;20450;49.074;9.158;2023-01-25T14:41:06;100948.22;;;2.93;80.07
34177;BME280;20450;49.074;9.158;2023-01-25T14:43:40;100950.22;;;3.00;79.94
34177;BME280;20450;49.074;9.158;2023-01-25T14:46:21;100946.50;;;2.92;79.62
34177;BME280;20450;49.074;9.158;2023-01-25T14:49:19;100943.09;;;2.50;80.98
34177;BME280;20450;49.074;9.158;2023-01-25T14:51:54;100934.47;;;2.37;81.31
34177;BME280;20450;49.074;9.158;2023-01-25T14:54:29;100935.59;;;2.44;81.70
34177;BME280;20450;49.074;9.158;2023-01-25T14:57:26;100942.28;;;2.59;81.60
34177;BME280;20450;49.074;9.158;2023-01-25T14:59:58;100935.75;;;2.63;80.93
34177;BME280;20450;49.074;9.158;2023-01-25T15:02:37;100926.34;;;2.69;80.44
34177;BME280;20450;49.074;9.158;2023-01-25T15:05:19;100923.16;;;2.75;80.26
34177;BME280;20450;49.074;9.158;2023-01-25T15:07:49;100916.69;;;2.77;79.95
34177;BME280;20450;49.074;9.158;2023-01-25T15:10:20;100929.34;;;2.75;80.35
34177;BME280;20450;49.074;9.158;2023-01-25T15:12:59;100920.50;;;2.84;79.77
34177;BME280;20450;49.074;9.158;2023-01-25T15:15:51;100916.34;;;2.91;80.26
34177;BME280;20450;49.074;9.158;2023-01-25T15:18:40;100917.03;;;2.93;80.15
34177;BME280;20450;49.074;9.158;2023-01-25T15:21:13;100913.94;;;2.98;79.98
34177;BME280;20450;49.074;9.158;2023-01-25T15:23:42;100908.06;;;2.94;80.09
34177;BME280;20450;49.074;9.158;2023-01-25T15:26:17;100907.47;;;2.91;79.53